aviador You're here:

VEPT Decoded Metar

PATINA in INDIA
Report Time2017-08-18 00:33:00
UTC Time2017-08-18 01:01:14
Flight Rules ifr IFR
Wind070° at 03 kt
W.Decomp.*RWY 07: 3.0 kt HW -0 kt LCW
W.Rank070° ranks 13
Current wind is below 070° avg. (5.0)
Visibility2000 m
Phenomena:Haze
Clouds:Few 010 Hf
Scattered 018 Hf
Broken 100 Hf
Expected CloudBase > 400 ft AGL from Temp-Dew spread
Ceiling10,000 ft
Temp26°C (ISA +11)
Dew Point25°C (94% RH)
QNH1000 hPa
Density Alt2,369 ft
Elevation197 ft
Report Wrong Elevation
Raw Report
METAR VEPT 180033Z 07003KT 2000 HZ FEW010 SCT018 BKN100 26/25 Q1000
NOSIG=

Extra information for VEPT:More info

Metar Taf Metar & Taf Last 4 Metars F.Rules Stats Wind Profile Meteogram Temp Stats Airport Information Weather charts Add Link Nearby VenuesMetar ALERT Operation Metar Decoded Social comments